Time;durP1;ratioP1;P1;durP2;ratioP2;P2;SDS_P1;SDS_P2;PMS_P1;PMS_P2;Temp;Humidity;BMP_temperature;BMP_pressure;BME280_temperature;BME280_humidity;BME280_pressure;Samples;Min_cycle;Max_cycle;Signal;HPM_P1;HPM_P2
2022/05/13 00:02:09;;;;;;;9.43;8.40;;;18.50;99.90;;;;;;5056615;28;20452;-58
2022/05/13 00:04:36;;;;;;;10.37;7.83;;;18.40;99.90;;;;;;5056510;28;20445;-58
2022/05/13 00:07:04;;;;;;;9.03;8.13;;;18.50;99.90;;;;;;5056272;28;20935;-57
2022/05/13 00:12:15;;;;;;;9.87;8.97;;;18.40;99.90;;;;;;5055955;28;20435;-58
2022/05/13 00:14:43;;;;;;;9.73;8.60;;;18.50;99.90;;;;;;5056393;28;20528;-58
2022/05/13 00:17:10;;;;;;;9.67;8.80;;;18.50;99.90;;;;;;5055919;28;20482;-58
2022/05/13 00:19:38;;;;;;;8.97;8.17;;;18.50;99.90;;;;;;5056242;28;20457;-58
2022/05/13 00:22:05;;;;;;;9.10;8.30;;;18.60;99.90;;;;;;5055890;28;20426;-57
2022/05/13 00:24:33;;;;;;;11.30;8.50;;;18.60;99.90;;;;;;5056025;28;20437;-57
2022/05/13 00:27:00;;;;;;;15.30;8.60;;;18.50;99.90;;;;;;5055732;28;20472;-57
2022/05/13 00:29:28;;;;;;;10.70;9.27;;;18.60;99.90;;;;;;5055986;28;20496;-57
2022/05/13 00:31:55;;;;;;;9.40;7.90;;;18.50;99.90;;;;;;5055967;28;20453;-58
2022/05/13 00:34:23;;;;;;;10.30;9.20;;;18.50;99.90;;;;;;5055622;28;20488;-57
2022/05/13 00:36:50;;;;;;;9.97;8.37;;;18.60;99.90;;;;;;5055695;28;20948;-57
2022/05/13 00:39:17;;;;;;;9.40;8.33;;;18.60;99.90;;;;;;5055890;28;20552;-57
2022/05/13 00:41:44;;;;;;;8.60;7.90;;;18.50;99.90;;;;;;5055672;28;20951;-58
2022/05/13 00:44:11;;;;;;;10.07;9.07;;;18.60;99.90;;;;;;5055375;28;20928;-58
2022/05/13 00:46:40;;;;;;;8.80;8.00;;;18.60;99.90;;;;;;5055570;28;20445;-58
2022/05/13 00:49:10;;;;;;;9.13;8.00;;;18.50;99.90;;;;;;5055504;28;20496;-58
2022/05/13 00:51:40;;;;;;;11.67;9.07;;;18.50;99.90;;;;;;5055755;28;20434;-58
2022/05/13 00:54:09;;;;;;;8.00;7.20;;;18.50;99.90;;;;;;5055650;28;20433;-58
2022/05/13 00:56:37;;;;;;;10.73;9.63;;;18.40;99.90;;;;;;5055288;28;20457;-57
2022/05/13 00:59:07;;;;;;;9.07;8.30;;;18.40;99.90;;;;;;5055140;28;20468;-57
2022/05/13 01:01:34;;;;;;;9.53;8.53;;;18.40;99.90;;;;;;5055404;28;20415;-57
2022/05/13 01:04:08;;;;;;;11.97;9.00;;;18.40;99.90;;;;;;5055095;28;20445;-57
2022/05/13 01:06:35;;;;;;;9.03;8.23;;;18.50;99.90;;;;;;5055106;28;20438;-58
2022/05/13 01:09:04;;;;;;;13.30;8.40;;;18.50;99.90;;;;;;5054971;28;20485;-58
2022/05/13 01:11:33;;;;;;;9.73;8.77;;;18.60;99.90;;;;;;5055405;28;20445;-59
2022/05/13 01:14:03;;;;;;;8.60;7.80;;;18.50;99.90;;;;;;5054938;28;20544;-58
2022/05/13 01:18:04;;;;;;;9.43;8.33;;;18.50;99.90;;;;;;5054931;28;20904;-58
2022/05/13 01:19:19;;;;;;;9.80;8.80;;;18.40;99.90;;;;;;5054862;28;20479;-57
2022/05/13 01:21:48;;;;;;;12.00;9.30;;;18.40;99.90;;;;;;5055062;28;20815;-57
2022/05/13 01:24:16;;;;;;;10.77;8.80;;;18.40;99.90;;;;;;5055120;28;20544;-57
2022/05/13 01:26:43;;;;;;;10.03;9.03;;;18.40;99.90;;;;;;5054606;28;20449;-57
2022/05/13 01:29:10;;;;;;;10.83;9.67;;;18.40;99.90;;;;;;5054636;28;20485;-58
2022/05/13 01:31:39;;;;;;;10.17;9.10;;;18.30;99.90;;;;;;5054559;28;20454;-58
2022/05/13 01:34:09;;;;;;;12.07;10.40;;;18.20;99.90;;;;;;5054488;28;20484;-58
2022/05/13 01:36:36;;;;;;;12.13;9.90;;;18.10;99.90;;;;;;5054289;28;20459;-58
2022/05/13 01:39:06;;;;;;;10.43;9.43;;;18.10;99.90;;;;;;5054829;28;20497;-58
2022/05/13 01:41:33;;;;;;;10.60;9.57;;;18.00;99.90;;;;;;5054697;28;20555;-58
2022/05/13 01:44:01;;;;;;;10.77;9.60;;;18.00;99.90;;;;;;5054297;28;20540;-58
2022/05/13 01:46:28;;;;;;;14.30;10.90;;;17.90;99.90;;;;;;5054281;28;20453;-58
2022/05/13 01:48:56;;;;;;;11.87;9.80;;;18.00;99.90;;;;;;5054525;28;20481;-58
2022/05/13 01:51:23;;;;;;;13.70;9.40;;;18.00;99.90;;;;;;5054222;28;20449;-57
2022/05/13 01:53:51;;;;;;;9.63;8.37;;;17.90;99.90;;;;;;5054621;28;20445;-57
2022/05/13 01:56:20;;;;;;;10.63;9.53;;;17.60;99.90;;;;;;5054046;28;20437;-58
2022/05/13 01:58:47;;;;;;;9.50;7.90;;;17.50;99.90;;;;;;5054454;28;20480;-58
2022/05/13 02:01:14;;;;;;;11.60;8.50;;;17.60;99.90;;;;;;5054036;28;20954;-58
2022/05/13 02:03:44;;;;;;;8.77;7.97;;;17.50;99.90;;;;;;5054254;28;20425;-58
2022/05/13 02:06:11;;;;;;;8.97;8.07;;;17.40;99.90;;;;;;5054260;28;20450;-58
2022/05/13 02:08:39;;;;;;;9.10;8.20;;;17.50;99.90;;;;;;5054176;28;20882;-57
2022/05/13 02:11:06;;;;;;;10.67;8.23;;;17.60;99.90;;;;;;5054083;28;20451;-57
2022/05/13 02:13:35;;;;;;;9.80;8.53;;;17.40;99.90;;;;;;5054101;28;20455;-58
2022/05/13 02:16:04;;;;;;;8.93;8.10;;;17.40;99.90;;;;;;5054049;28;20539;-58
2022/05/13 02:18:31;;;;;;;9.70;8.77;;;17.40;99.90;;;;;;5054074;28;20484;-57
2022/05/13 02:20:58;;;;;;;9.87;8.87;;;17.40;99.90;;;;;;5053890;28;20449;-58
2022/05/13 02:23:25;;;;;;;11.90;9.17;;;17.40;99.90;;;;;;5053732;28;20445;-58
2022/05/13 02:25:58;;;;;;;13.73;9.90;;;17.50;99.90;;;;;;5053928;28;20464;-57
2022/05/13 02:28:25;;;;;;;10.63;9.53;;;17.50;99.90;;;;;;5053857;28;20491;-57
2022/05/13 02:30:54;;;;;;;11.20;9.20;;;17.40;99.90;;;;;;5053789;28;20449;-57
2022/05/13 02:33:21;;;;;;;13.70;9.40;;;17.40;99.90;;;;;;5052554;28;20991;-58
2022/05/13 02:35:48;;;;;;;9.23;8.33;;;17.30;99.90;;;;;;5053673;28;20458;-58
2022/05/13 02:38:16;;;;;;;9.40;8.50;;;17.20;99.90;;;;;;5053722;28;20473;-58
2022/05/13 02:43:29;;;;;;;11.63;7.77;;;17.20;99.90;;;;;;5053669;28;20548;-58
2022/05/13 02:45:59;;;;;;;11.87;8.23;;;17.10;99.90;;;;;;5053507;28;20453;-57
2022/05/13 02:48:27;;;;;;;10.20;7.73;;;17.10;99.90;;;;;;5052541;28;20999;-58
2022/05/13 02:50:54;;;;;;;9.97;7.90;;;17.10;99.90;;;;;;5053287;28;20449;-57
2022/05/13 02:53:21;;;;;;;9.30;8.13;;;17.10;99.90;;;;;;5053298;28;20426;-58
2022/05/13 02:55:49;;;;;;;12.60;8.93;;;17.20;99.90;;;;;;5053145;28;20467;-58
2022/05/13 02:58:16;;;;;;;8.77;7.83;;;17.30;99.90;;;;;;5053359;28;20473;-58
2022/05/13 03:00:44;;;;;;;9.90;8.93;;;17.30;99.90;;;;;;5053322;28;20456;-59
2022/05/13 03:03:13;;;;;;;9.23;7.70;;;17.20;99.90;;;;;;5053143;28;20827;-58
2022/05/13 03:05:41;;;;;;;11.83;9.23;;;17.20;99.90;;;;;;5053025;28;20449;-58
2022/05/13 03:08:09;;;;;;;9.87;7.20;;;17.20;99.90;;;;;;5053262;28;20469;-58
2022/05/13 03:10:39;;;;;;;8.13;7.30;;;17.20;99.90;;;;;;5052912;28;20958;-58
2022/05/13 03:13:09;;;;;;;9.47;8.47;;;17.20;99.90;;;;;;5053400;28;20440;-59
2022/05/13 03:15:36;;;;;;;10.70;8.40;;;17.10;99.90;;;;;;5053037;28;20479;-58
2022/05/13 03:18:04;;;;;;;9.70;8.80;;;17.20;99.90;;;;;;5052917;28;20472;-59
2022/05/13 03:20:32;;;;;;;8.93;8.03;;;17.20;99.90;;;;;;5053128;28;20441;-58
2022/05/13 03:23:00;;;;;;;10.30;9.27;;;17.20;99.90;;;;;;5052971;28;20545;-59
2022/05/13 03:25:27;;;;;;;10.53;7.37;;;17.20;99.90;;;;;;5052892;28;20457;-59
2022/05/13 03:27:54;;;;;;;10.93;8.13;;;17.20;99.90;;;;;;5053147;28;20451;-58
2022/05/13 03:30:23;;;;;;;8.80;7.90;;;17.10;99.90;;;;;;5052997;28;20492;-58
2022/05/13 03:32:51;;;;;;;8.60;7.70;;;17.10;99.90;;;;;;5052676;28;20517;-58
2022/05/13 03:35:18;;;;;;;10.00;7.93;;;17.10;99.90;;;;;;5053039;28;20472;-58
2022/05/13 03:37:47;;;;;;;8.63;7.87;;;17.10;99.90;;;;;;5052788;28;20455;-58
2022/05/13 03:40:17;;;;;;;9.70;8.10;;;17.20;99.90;;;;;;5053014;28;20468;-58
2022/05/13 03:42:44;;;;;;;9.67;8.70;;;17.20;99.90;;;;;;5052825;28;20804;-58
2022/05/13 03:45:13;;;;;;;12.43;7.90;;;17.20;99.90;;;;;;5052897;28;20448;-58
2022/05/13 03:47:40;;;;;;;9.47;8.57;;;17.10;99.90;;;;;;5052730;28;20429;-58
2022/05/13 03:50:08;;;;;;;12.47;7.13;;;17.10;99.90;;;;;;5052806;28;20491;-57
2022/05/13 03:52:36;;;;;;;8.40;6.80;;;17.00;99.90;;;;;;5052717;28;20452;-58
2022/05/13 03:55:06;;;;;;;9.10;7.10;;;17.00;99.90;;;;;;5052822;28;20453;-57
2022/05/13 03:57:34;;;;;;;8.90;7.20;;;17.00;99.90;;;;;;5052647;28;20503;-58
2022/05/13 04:00:03;;;;;;;7.97;7.17;;;17.10;99.90;;;;;;5053429;28;20518;-58
2022/05/13 04:02:30;;;;;;;10.20;8.57;;;17.00;99.90;;;;;;5056379;28;20449;-58
2022/05/13 04:10:29;;;;;;;7.57;6.83;;;17.20;99.90;;;;;;5056408;28;20982;-59
2022/05/13 04:18:25;;;;;;;9.33;7.87;;;17.10;99.90;;;;;;5056214;28;20444;-58
2022/05/13 04:20:52;;;;;;;10.60;7.50;;;17.00;99.90;;;;;;5056157;28;20445;-59
2022/05/13 04:23:20;;;;;;;8.33;7.43;;;17.10;99.90;;;;;;5056267;28;20449;-58
2022/05/13 04:25:48;;;;;;;8.93;7.97;;;17.10;99.90;;;;;;5056139;28;20457;-58
2022/05/13 04:28:15;;;;;;;9.10;8.20;;;17.20;99.90;;;;;;5055863;28;20563;-58
2022/05/13 04:30:43;;;;;;;11.00;8.53;;;17.20;99.90;;;;;;5055888;28;20532;-58
2022/05/13 04:33:13;;;;;;;7.40;6.80;;;17.20;99.90;;;;;;5055794;28;20476;-58
2022/05/13 04:35:41;;;;;;;9.50;6.63;;;17.10;99.90;;;;;;5055752;28;20450;-57
2022/05/13 04:38:09;;;;;;;7.53;6.90;;;17.10;99.90;;;;;;5055978;28;20867;-58
2022/05/13 04:40:36;;;;;;;7.93;7.23;;;16.90;99.90;;;;;;5055962;28;20452;-58
2022/05/13 04:43:06;;;;;;;11.87;7.83;;;17.00;99.90;;;;;;5055582;28;20425;-57
2022/05/13 04:45:33;;;;;;;9.33;8.33;;;17.00;99.90;;;;;;5055503;28;20454;-58
2022/05/13 04:48:17;;;;;;;11.00;8.80;;;17.10;99.90;;;;;;5055336;28;20474;-57
2022/05/13 04:50:49;;;;;;;13.20;8.90;;;17.10;99.90;;;;;;5055610;28;20824;-57
2022/05/13 04:53:20;;;;;;;8.60;7.73;;;17.20;99.90;;;;;;5055783;28;20521;-57
2022/05/13 04:55:47;;;;;;;10.63;8.00;;;17.10;99.90;;;;;;5055187;28;20460;-57
2022/05/13 04:58:16;;;;;;;12.60;10.83;;;17.10;99.90;;;;;;5055506;28;20497;-58
2022/05/13 05:00:43;;;;;;;9.37;8.43;;;17.10;99.90;;;;;;5055398;28;20445;-58
2022/05/13 05:03:11;;;;;;;7.40;6.70;;;17.10;99.90;;;;;;5055247;28;20991;-58
2022/05/13 05:05:38;;;;;;;9.00;7.93;;;17.10;99.90;;;;;;5055033;28;20453;-58
2022/05/13 05:08:06;;;;;;;11.40;7.97;;;17.20;99.90;;;;;;5055076;28;20969;-58
2022/05/13 05:10:33;;;;;;;11.30;7.70;;;17.20;99.90;;;;;;5054961;28;20988;-58
2022/05/13 05:13:00;;;;;;;11.60;7.57;;;17.20;99.90;;;;;;5054384;28;20481;-58
2022/05/13 05:15:29;;;;;;;9.43;8.50;;;17.20;99.90;;;;;;5054950;28;20452;-58
2022/05/13 05:17:56;;;;;;;8.17;7.37;;;17.20;99.90;;;;;;5055184;28;20437;-58
2022/05/13 05:20:24;;;;;;;13.10;7.50;;;17.10;99.90;;;;;;5054939;28;20445;-58
2022/05/13 05:22:51;;;;;;;10.83;6.53;;;17.20;99.90;;;;;;5054728;28;20782;-58
2022/05/13 05:25:20;;;;;;;9.50;7.97;;;17.20;99.90;;;;;;5054856;28;20453;-58
2022/05/13 05:27:48;;;;;;;12.67;7.83;;;17.10;99.90;;;;;;5054687;28;20450;-58
2022/05/13 05:30:16;;;;;;;8.77;7.60;;;17.00;99.90;;;;;;5054441;28;20520;-57
2022/05/13 05:32:45;;;;;;;8.83;7.47;;;17.10;99.90;;;;;;5054575;28;20830;-58
2022/05/13 05:35:17;;;;;;;10.13;9.00;;;17.20;99.90;;;;;;5054791;28;20471;-58
2022/05/13 05:37:44;;;;;;;10.03;7.77;;;17.30;99.90;;;;;;5054469;28;20525;-58
2022/05/13 05:40:12;;;;;;;9.00;8.17;;;17.30;99.90;;;;;;5054577;28;20480;-59
2022/05/13 05:42:40;;;;;;;9.43;8.40;;;17.30;99.90;;;;;;5054311;28;20492;-59
2022/05/13 05:45:10;;;;;;;8.37;6.77;;;17.40;99.90;;;;;;5054181;28;20477;-58
2022/05/13 05:47:38;;;;;;;11.37;7.67;;;17.30;99.90;;;;;;5054700;28;20476;-58
2022/05/13 05:50:11;;;;;;;8.17;7.37;;;17.30;99.90;;;;;;5053855;28;20583;-58
2022/05/13 05:52:38;;;;;;;9.90;7.70;;;17.50;99.90;;;;;;5054029;28;20430;-59
2022/05/13 05:57:58;;;;;;;8.17;6.20;;;17.30;99.90;;;;;;5054216;28;20412;-58
2022/05/13 06:00:27;;;;;;;9.00;5.97;;;17.30;99.90;;;;;;5054386;28;20444;-57
2022/05/13 06:02:54;;;;;;;9.77;6.43;;;17.30;99.90;;;;;;5054318;28;20532;-58
2022/05/13 06:05:27;;;;;;;8.37;5.57;;;17.30;99.90;;;;;;5054318;28;20475;-58
2022/05/13 06:07:57;;;;;;;8.60;6.63;;;17.30;99.90;;;;;;5053976;28;20874;-58
2022/05/13 06:10:25;;;;;;;9.90;6.20;;;17.30;99.90;;;;;;5054175;28;20587;-59
2022/05/13 06:12:53;;;;;;;13.53;5.90;;;17.20;99.90;;;;;;5053676;28;20464;-58
2022/05/13 06:15:20;;;;;;;6.80;5.33;;;17.20;99.90;;;;;;5053595;28;20943;-58
2022/05/13 06:17:53;;;;;;;10.30;6.30;;;17.20;99.90;;;;;;5053861;28;20524;-58
2022/05/13 06:20:23;;;;;;;9.73;6.70;;;17.20;99.90;;;;;;5053974;28;20425;-58
2022/05/13 06:22:51;;;;;;;9.27;5.50;;;17.30;99.90;;;;;;5053558;28;20445;-58
2022/05/13 06:25:20;;;;;;;6.60;5.97;;;17.40;99.90;;;;;;5053883;28;20818;-58
2022/05/13 06:27:48;;;;;;;5.80;5.20;;;17.30;99.90;;;;;;5053428;28;20449;-58
2022/05/13 06:30:23;;;;;;;6.30;5.37;;;17.50;99.90;;;;;;5053718;28;20487;-58
2022/05/13 06:32:51;;;;;;;7.40;5.47;;;17.60;99.90;;;;;;5053372;28;20542;-58
2022/05/13 06:35:19;;;;;;;8.60;5.97;;;17.60;99.90;;;;;;5053706;28;20456;-59
2022/05/13 06:37:47;;;;;;;9.60;6.53;;;17.60;99.90;;;;;;5053275;28;20460;-57
2022/05/13 06:40:16;;;;;;;8.17;4.87;;;17.70;99.90;;;;;;5053351;28;20472;-58
2022/05/13 06:42:43;;;;;;;8.60;5.80;;;17.60;99.90;;;;;;5053352;28;20477;-57
2022/05/13 06:45:11;;;;;;;6.47;5.47;;;17.80;99.90;;;;;;5053339;28;20449;-58
2022/05/13 06:47:38;;;;;;;7.90;5.60;;;18.00;99.90;;;;;;5053478;28;20449;-58
2022/05/13 06:50:08;;;;;;;7.43;5.23;;;18.00;99.90;;;;;;5053425;28;20564;-58
2022/05/13 06:52:35;;;;;;;8.47;5.20;;;18.10;99.90;;;;;;5053059;28;20475;-58
2022/05/13 06:55:03;;;;;;;9.50;6.07;;;18.20;99.90;;;;;;5053281;28;20453;-57
2022/05/13 06:57:32;;;;;;;5.60;5.10;;;18.10;99.90;;;;;;5053346;28;20432;-57
2022/05/13 06:59:59;;;;;;;6.50;5.03;;;18.00;99.90;;;;;;5053316;28;20992;-58
2022/05/13 07:02:27;;;;;;;6.17;5.57;;;17.90;99.90;;;;;;5053009;28;20547;-58
2022/05/13 07:04:54;;;;;;;9.60;5.10;;;17.80;99.90;;;;;;5053210;28;20454;-58
2022/05/13 07:07:21;;;;;;;6.47;3.97;;;17.80;99.90;;;;;;5053101;28;20445;-59
2022/05/13 07:09:48;;;;;;;7.47;4.53;;;17.70;99.90;;;;;;5053068;28;20521;-58
2022/05/13 07:12:16;;;;;;;6.87;5.40;;;17.80;99.90;;;;;;5052750;28;20808;-58
2022/05/13 07:14:44;;;;;;;4.90;4.40;;;17.70;99.90;;;;;;5052832;28;20544;-58
2022/05/13 07:17:11;;;;;;;8.43;4.97;;;17.70;99.90;;;;;;5052927;28;20536;-57
2022/05/13 07:19:38;;;;;;;4.80;4.40;;;17.80;99.90;;;;;;5053058;28;20497;-57
2022/05/13 07:22:06;;;;;;;6.50;4.47;;;17.80;99.90;;;;;;5053031;28;20463;-58
2022/05/13 07:24:33;;;;;;;5.83;4.87;;;17.70;99.90;;;;;;5052551;28;20445;-58
2022/05/13 07:27:01;;;;;;;8.50;4.40;;;17.70;99.90;;;;;;5053090;28;20457;-58
2022/05/13 07:29:31;;;;;;;5.83;5.23;;;17.80;99.90;;;;;;5052554;28;20528;-57
2022/05/13 07:32:00;;;;;;;5.70;5.00;;;17.70;99.90;;;;;;5052722;28;20463;-57
2022/05/13 07:34:27;;;;;;;7.23;5.60;;;17.70;99.90;;;;;;5052298;28;21043;-57
2022/05/13 07:36:56;;;;;;;6.27;5.07;;;17.80;99.90;;;;;;5056807;28;20542;-57
2022/05/13 07:42:10;;;;;;;5.53;4.90;;;17.90;99.90;;;;;;5056642;28;20493;-57
2022/05/13 07:44:38;;;;;;;10.00;5.90;;;18.00;99.90;;;;;;5056459;28;20954;-57
2022/05/13 07:47:09;;;;;;;10.33;4.43;;;18.00;99.90;;;;;;5056459;28;20445;-58
2022/05/13 07:49:37;;;;;;;7.00;4.30;;;17.90;99.90;;;;;;5056504;28;20552;-58
2022/05/13 07:52:05;;;;;;;5.70;4.20;;;17.80;99.90;;;;;;5056282;28;20453;-58
2022/05/13 07:54:32;;;;;;;7.43;4.20;;;17.80;99.90;;;;;;5056621;28;20986;-58
2022/05/13 07:57:00;;;;;;;8.87;5.17;;;17.80;99.90;;;;;;5056691;28;20498;-57
2022/05/13 07:59:27;;;;;;;4.70;3.80;;;17.90;99.90;;;;;;5056292;28;20475;-57
2022/05/13 08:01:55;;;;;;;6.57;3.83;;;17.90;99.90;;;;;;5056522;28;20532;-58
2022/05/13 08:04:23;;;;;;;5.03;4.20;;;17.90;99.90;;;;;;5056565;28;20457;-58
2022/05/13 08:06:51;;;;;;;4.07;3.57;;;18.10;99.90;;;;;;5056071;28;20932;-58
2022/05/13 08:09:18;;;;;;;8.77;4.47;;;18.40;99.90;;;;;;5056420;28;20471;-57
2022/05/13 08:11:45;;;;;;;5.43;4.30;;;18.60;99.90;;;;;;5056209;28;20485;-58
2022/05/13 08:14:13;;;;;;;8.23;3.90;;;18.70;99.90;;;;;;5056201;28;20862;-57
2022/05/13 08:16:40;;;;;;;5.67;3.80;;;18.90;99.90;;;;;;5056233;28;20471;-57
2022/05/13 08:19:07;;;;;;;5.40;3.47;;;19.00;99.90;;;;;;5056160;28;20476;-57
2022/05/13 08:21:35;;;;;;;8.17;4.23;;;19.00;99.90;;;;;;5056192;28;20441;-57
2022/05/13 08:24:03;;;;;;;4.77;3.13;;;19.00;99.90;;;;;;5055739;28;20477;-57
2022/05/13 08:26:30;;;;;;;8.50;4.00;;;19.20;99.90;;;;;;5056138;28;20453;-57
2022/05/13 08:28:57;;;;;;;8.37;3.33;;;19.30;99.90;;;;;;5055488;28;21018;-58
2022/05/13 08:31:24;;;;;;;5.90;3.70;;;19.70;99.90;;;;;;5055943;28;20481;-58
2022/05/13 08:33:52;;;;;;;4.30;3.23;;;19.60;99.90;;;;;;5055283;28;20793;-57
2022/05/13 08:36:19;;;;;;;5.73;3.13;;;19.50;99.90;;;;;;5055648;28;20532;-58
2022/05/13 08:38:49;;;;;;;10.23;3.50;;;19.30;99.90;;;;;;5055712;28;20473;-57
2022/05/13 08:41:26;;;;;;;5.63;3.50;;;19.50;99.90;;;;;;5055621;28;20452;-57
2022/05/13 08:43:56;;;;;;;6.93;3.50;;;20.30;99.90;;;;;;5055835;28;20434;-56
2022/05/13 08:46:34;;;;;;;4.20;3.10;;;21.60;99.90;;;;;;5054302;28;20900;-58
2022/05/13 08:49:07;;;;;;;10.90;3.40;;;22.10;99.90;;;;;;5055480;28;20518;-58
2022/05/13 08:51:50;;;;;;;9.87;3.00;;;22.30;99.90;;;;;;5055377;28;20866;-57
2022/05/13 08:54:20;;;;;;;5.50;3.50;;;22.60;99.90;;;;;;5055491;28;20512;-58
2022/05/13 08:56:54;;;;;;;5.43;3.60;;;22.70;99.90;;;;;;5055783;28;20460;-57
2022/05/13 08:59:24;;;;;;;12.03;3.00;;;23.70;99.90;;;;;;5054994;28;20560;-57
2022/05/13 09:01:56;;;;;;;4.70;2.93;;;24.00;99.90;;;;;;5055490;28;20445;-57
2022/05/13 09:04:34;;;;;;;6.93;2.97;;;24.60;99.90;;;;;;5054971;28;20556;-58
2022/05/13 09:07:05;;;;;;;5.80;3.00;;;24.60;99.90;;;;;;5055115;28;20436;-58
2022/05/13 09:09:36;;;;;;;7.83;4.17;;;24.50;99.90;;;;;;5055102;28;20469;-58
2022/05/13 09:12:11;;;;;;;9.33;3.37;;;24.90;99.90;;;;;;5054872;28;20487;-57
2022/05/13 09:14:45;;;;;;;6.30;3.23;;;25.30;99.90;;;;;;5055140;28;20422;-58
2022/05/13 09:17:30;;;;;;;7.37;2.90;;;24.50;98.90;;;;;;5054991;28;20433;-58
2022/05/13 09:20:00;;;;;;;3.47;2.73;;;24.20;98.60;;;;;;5054574;28;20990;-58
2022/05/13 09:22:40;;;;;;;6.67;2.53;;;24.20;99.90;;;;;;5054262;28;20527;-58
2022/05/13 09:25:17;;;;;;;9.90;3.03;;;25.20;99.70;;;;;;5054441;28;20453;-58
2022/05/13 09:27:50;;;;;;;6.10;2.90;;;25.20;98.70;;;;;;5054665;28;20448;-58
2022/05/13 09:30:20;;;;;;;3.40;2.70;;;24.50;99.20;;;;;;5054160;28;20439;-58
2022/05/13 09:32:48;;;;;;;10.17;3.20;;;23.40;97.80;;;;;;5054025;28;20479;-58
2022/05/13 09:35:25;;;;;;;5.07;3.17;;;23.50;99.50;;;;;;5054317;28;20433;-58
2022/05/13 09:37:52;;;;;;;10.33;3.60;;;;;;;;;;5054204;28;20429;-57
2022/05/13 09:40:25;;;;;;;4.33;3.00;;;22.20;99.70;;;;;;5054504;28;20480;-58
2022/05/13 09:42:54;;;;;;;9.77;3.50;;;22.10;99.90;;;;;;5054538;28;20453;-58
2022/05/13 09:45:25;;;;;;;4.50;3.27;;;22.00;99.90;;;;;;5053990;28;20459;-58
2022/05/13 09:48:17;;;;;;;6.40;3.17;;;22.00;99.90;;;;;;5054354;28;20442;-57
2022/05/13 09:50:49;;;;;;;6.17;2.90;;;22.20;99.40;;;;;;5039746;28;20889;-58
2022/05/13 09:53:33;;;;;;;9.10;3.10;;;22.40;99.90;;;;;;5054204;28;20460;-58
2022/05/13 09:56:05;;;;;;;4.20;3.30;;;22.80;98.80;;;;;;5052562;28;20460;-58
2022/05/13 09:58:35;;;;;;;3.07;2.77;;;22.40;99.50;;;;;;5054081;28;20565;-58
2022/05/13 10:01:05;;;;;;;6.80;3.17;;;22.00;99.50;;;;;;5054516;28;20496;-58
2022/05/13 10:03:36;;;;;;;6.10;3.00;;;21.70;99.60;;;;;;5054222;28;20549;-58
2022/05/13 10:06:17;;;;;;;3.90;3.13;;;21.40;99.90;;;;;;5053819;28;20487;-57
2022/05/13 10:08:52;;;;;;;6.50;3.00;;;21.00;99.90;;;;;;5053733;28;20548;-58
2022/05/13 10:14:26;;;;;;;4.20;3.13;;;20.80;99.90;;;;;;5053879;28;20482;-57
2022/05/13 10:16:57;;;;;;;8.10;3.10;;;21.00;99.90;;;;;;5053797;28;20446;-57
2022/05/13 10:19:30;;;;;;;5.13;3.97;;;20.90;99.90;;;;;;5053604;28;20470;-57
2022/05/13 10:22:04;;;;;;;6.47;3.60;;;21.10;99.70;;;;;;5053568;28;20429;-57
2022/05/13 10:24:38;;;;;;;9.77;3.43;;;21.00;99.90;;;;;;5053987;28;20465;-57
2022/05/13 10:27:22;;;;;;;4.50;2.90;;;21.20;99.90;;;;;;5053524;28;20476;-57
2022/05/13 10:29:52;;;;;;;6.00;2.90;;;21.40;99.90;;;;;;5053351;28;20469;-57
2022/05/13 10:32:28;;;;;;;4.07;2.80;;;21.00;99.90;;;;;;5053220;28;20476;-57
2022/05/13 10:34:57;;;;;;;4.80;3.30;;;20.80;99.90;;;;;;5053382;28;20786;-57
2022/05/13 10:37:32;;;;;;;7.50;3.80;;;;;;;;;;5053234;28;20434;-57
2022/05/13 10:40:04;;;;;;;4.27;3.47;;;20.50;99.90;;;;;;5053569;28;20505;-58
2022/05/13 10:42:37;;;;;;;5.57;3.70;;;20.50;99.90;;;;;;5053025;28;20428;-57
2022/05/13 10:45:09;;;;;;;8.10;3.53;;;20.30;99.90;;;;;;5053413;28;20440;-58
2022/05/13 10:47:41;;;;;;;8.37;3.50;;;20.30;99.90;;;;;;5053030;28;20468;-58
2022/05/13 10:50:15;;;;;;;3.97;3.23;;;20.30;99.90;;;;;;5053181;28;20889;-58
2022/05/13 10:52:55;;;;;;;6.33;3.50;;;20.40;99.90;;;;;;5052827;28;20465;-58
2022/05/13 10:55:29;;;;;;;5.00;3.50;;;20.60;99.90;;;;;;5052850;28;20986;-58
2022/05/13 10:58:14;;;;;;;8.63;3.17;;;20.70;99.90;;;;;;5052983;28;20871;-58
2022/05/13 11:00:53;;;;;;;6.03;3.87;;;20.80;99.90;;;;;;5053346;28;20504;-58
2022/05/13 11:03:38;;;;;;;5.87;3.37;;;20.70;99.90;;;;;;5052668;28;20469;-58
2022/05/13 11:06:25;;;;;;;5.90;3.70;;;20.80;99.90;;;;;;5053039;28;20792;-58
2022/05/13 11:09:00;;;;;;;7.07;3.40;;;20.60;99.90;;;;;;5052873;28;20468;-58
2022/05/13 11:11:38;;;;;;;9.23;3.90;;;20.70;99.90;;;;;;5052493;28;20546;-59
2022/05/13 11:14:32;;;;;;;4.93;3.30;;;20.80;99.90;;;;;;5052697;28;20436;-58
2022/05/13 11:17:09;;;;;;;6.03;4.73;;;20.90;99.90;;;;;;5053110;28;20429;-58
2022/05/13 11:19:40;;;;;;;5.80;3.40;;;20.60;99.90;;;;;;5052830;28;20469;-58
2022/05/13 11:22:18;;;;;;;5.60;3.70;;;20.70;99.90;;;;;;5052733;28;20426;-58
2022/05/13 11:27:54;;;;;;;8.63;4.10;;;21.20;99.90;;;;;;5052841;28;20412;-58
2022/05/13 11:30:32;;;;;;;5.90;4.03;;;22.20;99.90;;;;;;5052960;28;20785;-59
2022/05/13 11:33:03;;;;;;;4.93;3.47;;;22.20;99.90;;;;;;5052354;28;20492;-59
2022/05/13 11:35:40;;;;;;;11.87;5.87;;;22.40;99.90;;;;;;5052669;28;20476;-59
2022/05/13 11:38:15;;;;;;;5.40;3.40;;;22.50;99.90;;;;;;5052297;28;20838;-58
2022/05/13 11:40:51;;;;;;;4.90;3.80;;;22.50;99.90;;;;;;5052608;28;20904;-58
2022/05/13 11:43:38;;;;;;;12.20;4.47;;;22.50;99.90;;;;;;5052532;28;20453;-58
2022/05/13 11:46:44;;;;;;;5.00;3.70;;;22.10;99.90;;;;;;5044826;28;20460;-58
2022/05/13 11:49:19;;;;;;;6.70;4.00;;;21.90;99.90;;;;;;5036876;28;20485;-59
2022/05/13 11:51:46;;;;;;;4.27;3.87;;;21.80;99.90;;;;;;5048371;28;20479;-58
2022/05/13 11:54:20;;;;;;;7.47;4.20;;;21.40;99.90;;;;;;5046563;28;20492;-59
2022/05/13 11:56:48;;;;;;;8.17;4.00;;;21.50;99.90;;;;;;5049385;28;20465;-58
2022/05/13 11:59:46;;;;;;;5.37;3.50;;;21.50;99.90;;;;;;5042893;28;20487;-61
2022/05/13 12:02:30;;;;;;;4.03;3.50;;;21.40;99.90;;;;;;5038094;28;20468;-52
2022/05/13 12:05:24;;;;;;;3.43;2.80;;;21.30;99.90;;;;;;5040587;28;20551;-56
2022/05/13 12:07:54;;;;;;;8.13;3.77;;;22.50;99.90;;;;;;5038174;28;20471;-55
2022/05/13 12:10:30;;;;;;;4.70;3.33;;;23.00;99.40;;;;;;5036672;28;20510;-50
2022/05/13 12:13:22;;;;;;;4.63;4.10;;;23.00;99.20;;;;;;5038118;28;20480;-60
2022/05/13 12:16:25;;;;;;;7.00;3.60;;;22.40;98.90;;;;;;5038005;28;20453;-65
2022/05/13 12:18:59;;;;;;;3.77;3.47;;;21.90;99.00;;;;;;5037366;28;20485;-52
2022/05/13 12:21:37;;;;;;;9.23;4.57;;;21.90;99.90;;;;;;5045110;28;20449;-55
2022/05/13 12:24:19;;;;;;;3.40;3.10;;;22.60;99.50;;;;;;5053930;28;20483;-57
2022/05/13 12:27:13;;;;;;;4.37;3.30;;;23.70;99.60;;;;;;5047819;28;20465;-56
2022/05/13 12:29:46;;;;;;;11.70;3.80;;;23.70;98.80;;;;;;5048440;28;20495;-60
2022/05/13 12:32:23;;;;;;;3.90;3.50;;;22.40;98.10;;;;;;5045742;28;20469;-60
2022/05/13 12:38:06;;;;;;;5.50;3.80;;;22.30;99.20;;;;;;5055277;28;20520;-61
2022/05/13 12:40:40;;;;;;;7.93;4.80;;;22.00;98.60;;;;;;5049419;28;20544;-55
2022/05/13 12:43:16;;;;;;;5.17;3.17;;;23.00;99.90;;;;;;5052331;28;20528;-61
2022/05/13 12:46:13;;;;;;;4.07;3.43;;;23.00;98.00;;;;;;5048141;28;20445;-53
2022/05/13 12:49:02;;;;;;;8.20;4.00;;;23.10;99.00;;;;;;5047256;28;20473;-61
2022/05/13 12:51:41;;;;;;;5.23;3.57;;;23.20;99.10;;;;;;5048457;28;20515;-55
2022/05/13 12:54:09;;;;;;;7.80;3.13;;;23.40;98.50;;;;;;5051683;28;20445;-57
2022/05/13 12:56:39;;;;;;;9.63;3.83;;;23.60;98.30;;;;;;5050856;28;20461;-51
2022/05/13 12:59:11;;;;;;;3.40;3.10;;;24.10;98.00;;;;;;5046241;28;20486;-60
2022/05/13 13:01:43;;;;;;;5.27;3.30;;;24.60;96.50;;;;;;5052911;28;20799;-54
2022/05/13 13:04:12;;;;;;;6.10;3.13;;;25.00;97.10;;;;;;5048787;28;20561;-57
2022/05/13 13:06:44;;;;;;;3.70;3.10;;;25.00;96.10;;;;;;5046725;28;20867;-55
2022/05/13 13:09:23;;;;;;;5.23;3.37;;;25.20;93.40;;;;;;5048136;28;20469;-58
2022/05/13 13:11:57;;;;;;;5.83;3.43;;;24.90;95.40;;;;;;5051351;28;20979;-55
2022/05/13 13:14:39;;;;;;;6.47;3.83;;;24.80;95.50;;;;;;5052859;28;20449;-58
2022/05/13 13:17:11;;;;;;;4.90;3.60;;;24.90;95.50;;;;;;5051443;28;20484;-59
2022/05/13 13:19:38;;;;;;;4.83;3.27;;;25.30;94.40;;;;;;5046787;28;20475;-67
2022/05/13 13:22:12;;;;;;;7.63;3.60;;;24.70;94.60;;;;;;5048881;28;20460;-57
2022/05/13 13:24:41;;;;;;;8.43;3.87;;;24.90;95.10;;;;;;5041207;28;20457;-62
2022/05/13 13:27:16;;;;;;;4.77;4.07;;;24.50;95.20;;;;;;5042560;28;20574;-55
2022/05/13 13:29:45;;;;;;;6.70;4.00;;;24.40;95.50;;;;;;5048383;28;20477;-60
2022/05/13 13:32:15;;;;;;;11.77;4.43;;;24.40;94.70;;;;;;5050145;28;20826;-57
2022/05/13 13:34:51;;;;;;;5.27;3.33;;;24.60;94.90;;;;;;5052831;28;20454;-55
2022/05/13 13:37:23;;;;;;;6.40;3.90;;;24.10;93.60;;;;;;5053012;28;20456;-56